createdAt,value
2019-01-02T00:00:26.957Z,6.45
2019-01-02T00:01:26.943Z,6.43
2019-01-02T00:02:26.931Z,6.42
2019-01-02T00:03:26.919Z,6.45
2019-01-02T00:04:26.903Z,6.38
2019-01-02T00:05:26.887Z,6.38
2019-01-02T00:06:26.877Z,6.46
2019-01-02T00:07:26.861Z,6.50
2019-01-02T00:08:26.847Z,6.54
2019-01-02T00:09:26.836Z,6.42
2019-01-02T00:10:26.818Z,6.45
2019-01-02T00:11:26.807Z,6.43
2019-01-02T00:12:26.793Z,6.43
2019-01-02T00:13:26.779Z,6.40
2019-01-02T00:14:26.766Z,6.40
2019-01-02T00:15:26.751Z,6.39
2019-01-02T00:16:26.738Z,6.45
2019-01-02T00:17:26.724Z,6.48
2019-01-02T00:18:26.709Z,6.45
2019-01-02T00:19:26.696Z,6.54
2019-01-02T00:20:26.682Z,6.68
2019-01-02T00:21:26.668Z,6.60
2019-01-02T00:22:26.654Z,6.64
2019-01-02T00:23:26.639Z,6.63
2019-01-02T00:24:26.625Z,6.61
2019-01-02T00:25:26.610Z,6.75
2019-01-02T00:26:26.599Z,6.71
2019-01-02T00:27:26.586Z,6.90
2019-01-02T00:28:26.572Z,6.81
2019-01-02T00:29:26.557Z,6.78
2019-01-02T00:30:26.546Z,6.83
2019-01-02T00:31:26.528Z,6.86
2019-01-02T00:32:26.516Z,6.89
2019-01-02T00:33:26.499Z,6.86
2019-01-02T00:34:26.486Z,6.93
2019-01-02T00:35:26.474Z,6.94
2019-01-02T00:36:26.461Z,6.99
2019-01-02T00:37:26.444Z,6.97
2019-01-02T00:38:26.479Z,6.91
2019-01-02T00:39:26.418Z,6.83
2019-01-02T00:40:26.406Z,6.79
2019-01-02T00:41:26.390Z,6.69
2019-01-02T00:42:26.380Z,6.73
2019-01-02T00:43:26.363Z,6.81
2019-01-02T00:44:26.350Z,6.78
2019-01-02T00:45:26.339Z,6.69
2019-01-02T00:46:26.322Z,6.79
2019-01-02T00:47:26.308Z,6.76
2019-01-02T00:48:26.295Z,6.65
2019-01-02T00:49:26.278Z,6.68
2019-01-02T00:50:26.266Z,6.73
2019-01-02T00:51:26.252Z,6.73
2019-01-02T00:52:26.239Z,6.63
2019-01-02T00:53:26.224Z,6.61
2019-01-02T00:54:26.210Z,6.57
2019-01-02T00:55:26.195Z,6.48
2019-01-02T00:56:26.183Z,6.43
2019-01-02T00:57:26.168Z,6.42
2019-01-02T00:58:26.154Z,6.38
2019-01-02T00:59:26.141Z,6.35
2019-01-02T01:00:26.126Z,6.32
2019-01-02T01:01:26.117Z,6.53
2019-01-02T01:02:26.104Z,6.60
2019-01-02T01:03:26.084Z,6.54
2019-01-02T01:04:26.071Z,6.45
2019-01-02T01:05:26.065Z,6.42
2019-01-02T01:06:26.044Z,6.35
2019-01-02T01:07:26.032Z,6.33
2019-01-02T01:08:26.016Z,6.38
2019-01-02T01:09:26.002Z,6.36
2019-01-02T01:10:25.987Z,6.36
2019-01-02T01:11:25.975Z,6.27
2019-01-02T01:12:25.997Z,6.36
2019-01-02T01:13:25.947Z,6.24
2019-01-02T01:14:25.935Z,6.24
2019-01-02T01:15:25.918Z,6.33
2019-01-02T01:16:25.910Z,6.33
2019-01-02T01:17:25.891Z,6.32
2019-01-02T01:18:25.874Z,6.30
2019-01-02T01:19:25.865Z,6.27
2019-01-02T01:20:25.849Z,6.27
2019-01-02T01:21:25.834Z,6.28
2019-01-02T01:22:25.820Z,6.25
2019-01-02T01:23:25.810Z,6.27
2019-01-02T01:24:25.794Z,6.19
2019-01-02T01:25:25.778Z,6.27
2019-01-02T01:26:25.767Z,6.27
2019-01-02T01:27:25.753Z,6.21
2019-01-02T01:28:25.738Z,6.30
2019-01-02T01:29:25.725Z,6.30
2019-01-02T01:30:25.710Z,6.28
2019-01-02T01:31:25.697Z,6.28
2019-01-02T01:32:25.681Z,6.27
2019-01-02T01:33:25.670Z,6.30
2019-01-02T01:34:25.655Z,6.38
2019-01-02T01:35:25.639Z,6.32
2019-01-02T01:36:25.625Z,6.38
2019-01-02T01:37:25.613Z,6.33
2019-01-02T01:38:25.598Z,6.39
2019-01-02T01:39:25.585Z,6.35
2019-01-02T01:40:25.572Z,6.33
2019-01-02T01:41:25.557Z,6.30
2019-01-02T01:42:25.544Z,6.28
2019-01-02T01:43:25.530Z,6.17
2019-01-02T01:44:25.518Z,6.35
2019-01-02T01:45:25.503Z,6.39
2019-01-02T01:46:25.488Z,6.43
2019-01-02T01:47:25.475Z,6.45
2019-01-02T01:48:25.463Z,6.28
2019-01-02T01:49:25.447Z,6.38
2019-01-02T01:50:25.431Z,6.30
2019-01-02T01:51:25.423Z,6.27
2019-01-02T01:52:25.410Z,6.33
2019-01-02T01:53:25.391Z,6.35
2019-01-02T01:54:25.377Z,6.57
2019-01-02T01:55:25.366Z,6.43
2019-01-02T01:56:25.349Z,6.43
2019-01-02T01:57:25.335Z,6.42
2019-01-02T01:58:25.320Z,6.45
2019-01-02T01:59:25.308Z,6.39
2019-01-02T02:00:25.298Z,6.36
2019-01-02T02:01:25.278Z,6.33
2019-01-02T02:02:25.266Z,6.32
2019-01-02T02:03:25.251Z,6.42
2019-01-02T02:04:25.237Z,6.65
2019-01-02T02:05:25.223Z,6.58
2019-01-02T02:06:25.209Z,6.53
2019-01-02T02:07:25.197Z,6.46
2019-01-02T02:08:25.182Z,6.40
2019-01-02T02:09:25.168Z,6.40
2019-01-02T02:10:25.155Z,6.46
2019-01-02T02:11:25.140Z,6.35
2019-01-02T02:12:25.126Z,6.33
2019-01-02T02:13:25.110Z,6.33
2019-01-02T02:14:25.111Z,6.30
2019-01-02T02:15:25.083Z,6.43
2019-01-02T02:16:25.068Z,6.33
2019-01-02T02:17:25.056Z,6.38
2019-01-02T02:18:25.040Z,6.32
2019-01-02T02:19:25.025Z,6.40
2019-01-02T02:20:25.013Z,6.45
2019-01-02T02:21:24.998Z,6.54
2019-01-02T02:22:24.984Z,6.48
2019-01-02T02:23:24.984Z,6.58
2019-01-02T02:24:24.956Z,6.68
2019-01-02T02:25:24.948Z,6.69
2019-01-02T02:26:24.931Z,6.71
2019-01-02T02:27:24.913Z,6.68
2019-01-02T02:28:24.901Z,6.60
2019-01-02T02:29:24.884Z,6.50
2019-01-02T02:30:24.870Z,6.48
2019-01-02T02:31:24.856Z,6.46
2019-01-02T02:32:24.842Z,6.48
2019-01-02T02:33:24.828Z,6.45
2019-01-02T02:34:24.813Z,6.43
2019-01-02T02:35:24.799Z,6.43
2019-01-02T02:36:24.788Z,6.51
2019-01-02T02:37:24.775Z,6.35
2019-01-02T02:38:24.757Z,6.48
2019-01-02T02:39:24.744Z,6.51
2019-01-02T02:40:24.729Z,6.42
2019-01-02T02:41:24.715Z,6.33
2019-01-02T02:42:24.702Z,6.35
2019-01-02T02:43:24.686Z,6.24
2019-01-02T02:44:24.674Z,6.25
2019-01-02T02:45:24.657Z,6.24
2019-01-02T02:46:24.645Z,6.16
2019-01-02T02:47:24.641Z,6.08
2019-01-02T02:48:24.616Z,6.11
2019-01-02T02:49:24.603Z,6.20
2019-01-02T02:50:24.591Z,6.25
2019-01-02T02:51:24.573Z,6.14
2019-01-02T02:52:24.558Z,6.08
2019-01-02T02:53:24.544Z,6.13
2019-01-02T02:54:24.528Z,6.17
2019-01-02T02:55:24.515Z,6.17
2019-01-02T02:56:24.502Z,6.30
2019-01-02T02:57:24.487Z,6.21
2019-01-02T02:58:24.479Z,6.21
2019-01-02T02:59:24.458Z,6.19
2019-01-02T03:00:24.443Z,6.19
2019-01-02T03:01:24.429Z,6.25
2019-01-02T03:02:24.416Z,6.25
2019-01-02T03:03:24.680Z,6.17
2019-01-02T03:04:24.386Z,6.20
2019-01-02T03:05:24.373Z,6.21
2019-01-02T03:06:25.536Z,6.14
2019-01-02T03:07:24.345Z,6.10
2019-01-02T03:08:24.330Z,6.20
2019-01-02T03:09:24.313Z,6.17
2019-01-02T03:10:24.301Z,6.16
2019-01-02T03:11:24.289Z,6.21
2019-01-02T03:12:24.271Z,6.28
2019-01-02T03:13:24.258Z,6.17
2019-01-02T03:14:24.244Z,6.19
2019-01-02T03:15:24.230Z,6.17
2019-01-02T03:16:24.218Z,6.17
2019-01-02T03:17:24.200Z,6.14
2019-01-02T03:18:24.187Z,6.24
2019-01-02T03:19:24.172Z,6.24
2019-01-02T03:20:24.160Z,6.24
2019-01-02T03:21:24.148Z,6.27
2019-01-02T03:22:24.134Z,6.33
2019-01-02T03:23:24.116Z,6.28
2019-01-02T03:24:24.104Z,6.40
2019-01-02T03:25:24.087Z,6.42
2019-01-02T03:26:24.073Z,6.71
2019-01-02T03:27:24.060Z,6.58
2019-01-02T03:28:24.043Z,6.63
2019-01-02T03:29:24.031Z,6.48
2019-01-02T03:30:24.016Z,6.35
2019-01-02T03:31:24.003Z,6.11
2019-01-02T03:32:23.987Z,5.98
2019-01-02T03:33:23.972Z,5.83
2019-01-02T03:34:23.959Z,5.87
2019-01-02T03:35:23.947Z,5.88
2019-01-02T03:36:23.930Z,5.92
2019-01-02T03:37:23.915Z,5.92
2019-01-02T03:38:23.900Z,6.02
2019-01-02T03:39:23.886Z,5.98
2019-01-02T03:40:23.872Z,5.93
2019-01-02T03:41:23.855Z,5.90
2019-01-02T03:42:23.842Z,5.85
2019-01-02T03:43:23.827Z,5.78
2019-01-02T03:44:23.812Z,5.87
2019-01-02T03:45:23.797Z,5.80
2019-01-02T03:46:23.784Z,5.74
2019-01-02T03:47:23.769Z,5.78
2019-01-02T03:48:23.754Z,5.63
2019-01-02T03:49:23.738Z,5.63
2019-01-02T03:50:23.723Z,5.60
2019-01-02T03:51:23.710Z,5.67
2019-01-02T03:52:23.697Z,5.70
2019-01-02T03:53:23.683Z,5.67
2019-01-02T03:54:23.665Z,5.62
2019-01-02T03:55:23.650Z,5.56
2019-01-02T03:56:23.638Z,5.51
2019-01-02T03:57:23.622Z,5.45
2019-01-02T03:58:23.608Z,5.51
2019-01-02T03:59:23.592Z,5.52
2019-01-02T04:00:23.575Z,5.42
2019-01-02T04:01:23.564Z,5.45
2019-01-02T04:02:23.579Z,5.42
2019-01-02T04:03:23.535Z,5.47
2019-01-02T04:04:23.518Z,5.37
2019-01-02T04:05:23.504Z,5.40
2019-01-02T04:06:23.488Z,5.30
2019-01-02T04:07:23.473Z,5.41
2019-01-02T04:08:23.459Z,5.35
2019-01-02T04:09:23.445Z,5.35
2019-01-02T04:10:23.428Z,5.26
2019-01-02T04:11:23.413Z,5.30
2019-01-02T04:12:23.401Z,5.33
2019-01-02T04:13:23.387Z,5.41
2019-01-02T04:14:23.372Z,5.32
2019-01-02T04:15:23.359Z,5.22
2019-01-02T04:16:23.341Z,5.22
2019-01-02T04:17:23.327Z,5.24
2019-01-02T04:18:23.312Z,5.19
2019-01-02T04:19:23.296Z,5.15
2019-01-02T04:20:23.283Z,5.15
2019-01-02T04:21:23.265Z,5.12
2019-01-02T04:22:23.252Z,5.01
2019-01-02T04:23:23.236Z,5.05
2019-01-02T04:24:23.221Z,5.06
2019-01-02T04:25:23.208Z,5.01
2019-01-02T04:26:23.193Z,4.96
2019-01-02T04:27:23.176Z,5.04
2019-01-02T04:28:23.163Z,4.93
2019-01-02T04:29:23.147Z,4.96
2019-01-02T04:30:23.133Z,5.02
2019-01-02T04:31:23.117Z,4.99
2019-01-02T04:32:23.103Z,4.99
2019-01-02T04:33:23.087Z,5.01
2019-01-02T04:34:23.070Z,5.02
2019-01-02T04:35:23.056Z,4.97
2019-01-02T04:36:23.042Z,4.86
2019-01-02T04:37:23.025Z,4.84
2019-01-02T04:38:23.014Z,4.84
2019-01-02T04:39:22.994Z,4.86
2019-01-02T04:40:22.983Z,4.94
2019-01-02T04:41:22.965Z,5.01
2019-01-02T04:42:22.951Z,4.96
2019-01-02T04:43:22.934Z,4.91
2019-01-02T04:44:22.920Z,5.04
2019-01-02T04:45:22.906Z,5.05
2019-01-02T04:46:22.891Z,5.08
2019-01-02T04:47:22.874Z,5.06
2019-01-02T04:48:22.858Z,5.06
2019-01-02T04:49:22.844Z,5.17
2019-01-02T04:50:22.828Z,5.14
2019-01-02T04:51:22.813Z,5.12
2019-01-02T04:52:22.799Z,5.14
2019-01-02T04:53:22.785Z,5.14
2019-01-02T04:54:22.766Z,5.04
2019-01-02T04:55:22.753Z,5.08
2019-01-02T04:56:22.739Z,4.99
2019-01-02T04:57:22.721Z,4.97
2019-01-02T04:58:22.707Z,4.87
2019-01-02T04:59:22.692Z,4.83
2019-01-02T05:00:22.677Z,4.77
2019-01-02T05:01:22.659Z,4.80
2019-01-02T05:02:22.644Z,4.84
2019-01-02T05:03:22.631Z,4.83
2019-01-02T05:04:22.616Z,4.77
2019-01-02T05:05:22.600Z,4.69
2019-01-02T05:06:22.584Z,4.71
2019-01-02T05:07:22.568Z,4.79
2019-01-02T05:08:22.554Z,4.72
2019-01-02T05:09:22.535Z,4.84
2019-01-02T05:10:22.522Z,4.74
2019-01-02T05:11:22.506Z,4.68
2019-01-02T05:12:22.489Z,4.62
2019-01-02T05:13:22.474Z,4.64
2019-01-02T05:14:22.457Z,4.67
2019-01-02T05:15:22.442Z,4.64
2019-01-02T05:16:22.427Z,4.67
2019-01-02T05:17:22.410Z,4.64
2019-01-02T05:18:22.395Z,4.71
2019-01-02T05:19:22.382Z,4.65
2019-01-02T05:20:22.365Z,4.72
2019-01-02T05:21:22.351Z,4.72
2019-01-02T05:22:22.335Z,4.67
2019-01-02T05:23:22.317Z,4.68
2019-01-02T05:24:22.304Z,4.77
2019-01-02T05:25:22.286Z,4.68
2019-01-02T05:26:22.272Z,4.64
2019-01-02T05:27:22.254Z,4.68
2019-01-02T05:28:22.240Z,4.67
2019-01-02T05:29:22.223Z,4.67
2019-01-02T05:30:22.208Z,4.68
2019-01-02T05:31:22.194Z,4.74
2019-01-02T05:32:22.178Z,4.68
2019-01-02T05:33:22.161Z,4.68
2019-01-02T05:34:22.147Z,4.62
2019-01-02T05:35:22.130Z,4.67
2019-01-02T05:36:22.115Z,4.62
2019-01-02T05:37:22.097Z,4.57
2019-01-02T05:38:22.083Z,4.44
2019-01-02T05:39:22.067Z,4.56
2019-01-02T05:40:22.051Z,4.51
2019-01-02T05:41:22.037Z,4.57
2019-01-02T05:42:22.019Z,4.56
2019-01-02T05:43:22.005Z,4.64
2019-01-02T05:44:21.991Z,4.61
2019-01-02T05:45:21.971Z,4.53
2019-01-02T05:46:21.958Z,4.36
2019-01-02T05:47:21.942Z,4.50
2019-01-02T05:48:21.925Z,4.46
2019-01-02T05:49:21.909Z,4.44
2019-01-02T05:50:21.896Z,4.44
2019-01-02T05:51:21.875Z,4.36
2019-01-02T05:52:21.861Z,4.34
2019-01-02T05:53:21.844Z,4.34
2019-01-02T05:54:21.828Z,4.29
2019-01-02T05:55:21.814Z,4.21
2019-01-02T05:56:21.795Z,4.21
2019-01-02T05:57:21.778Z,4.35
2019-01-02T05:58:21.764Z,4.29
2019-01-02T05:59:21.746Z,4.34
2019-01-02T06:00:21.731Z,4.39
2019-01-02T06:01:21.712Z,4.46
2019-01-02T06:02:21.698Z,4.49
2019-01-02T06:03:21.682Z,4.36
2019-01-02T06:04:21.666Z,4.47
2019-01-02T06:05:21.648Z,4.38
2019-01-02T06:06:21.633Z,4.29
2019-01-02T06:07:21.618Z,4.35
2019-01-02T06:08:21.601Z,4.36
2019-01-02T06:09:21.584Z,4.32
2019-01-02T06:10:21.566Z,4.38
2019-01-02T06:11:21.557Z,4.35
2019-01-02T06:12:21.537Z,4.34
2019-01-02T06:13:21.520Z,4.35
2019-01-02T06:14:21.503Z,4.44
2019-01-02T06:15:21.488Z,4.35
2019-01-02T06:16:21.471Z,4.29
2019-01-02T06:17:21.454Z,4.36
2019-01-02T06:18:21.438Z,4.29
2019-01-02T06:19:21.422Z,4.26
2019-01-02T06:20:21.407Z,4.35
2019-01-02T06:21:21.390Z,4.28
2019-01-02T06:22:21.376Z,4.34
2019-01-02T06:23:21.357Z,4.35
2019-01-02T06:24:21.341Z,4.34
2019-01-02T06:25:21.326Z,4.36
2019-01-02T06:26:21.308Z,4.38
2019-01-02T06:27:21.292Z,4.42
2019-01-02T06:28:21.276Z,4.46
2019-01-02T06:29:21.260Z,4.44
2019-01-02T06:30:21.242Z,4.50
2019-01-02T06:31:21.226Z,4.50
2019-01-02T06:32:21.211Z,4.43
2019-01-02T06:33:21.195Z,4.43
2019-01-02T06:34:21.176Z,4.50
2019-01-02T06:35:21.161Z,4.59
2019-01-02T06:36:21.146Z,4.53
2019-01-02T06:37:21.127Z,4.44
2019-01-02T06:38:21.111Z,4.43
2019-01-02T06:39:21.095Z,4.49
2019-01-02T06:40:21.081Z,4.39
2019-01-02T06:41:21.063Z,4.39
2019-01-02T06:42:21.048Z,4.42
2019-01-02T06:43:21.032Z,4.32
2019-01-02T06:44:21.016Z,4.35
2019-01-02T06:45:20.998Z,4.31
2019-01-02T06:46:20.982Z,4.32
2019-01-02T06:47:20.964Z,4.26
2019-01-02T06:48:20.948Z,4.36
2019-01-02T06:49:20.933Z,4.25
2019-01-02T06:50:20.914Z,4.20
2019-01-02T06:51:20.899Z,4.21
2019-01-02T06:52:20.885Z,4.18
2019-01-02T06:53:20.866Z,4.10
2019-01-02T06:54:20.850Z,4.06
2019-01-02T06:55:20.833Z,4.10
2019-01-02T06:56:20.821Z,4.16
2019-01-02T06:57:20.802Z,4.11
2019-01-02T06:58:20.786Z,4.08
2019-01-02T06:59:20.769Z,4.08
2019-01-02T07:00:20.751Z,4.11
2019-01-02T07:01:20.737Z,3.99
2019-01-02T07:02:20.720Z,4.08
2019-01-02T07:03:20.705Z,4.13
2019-01-02T07:04:20.688Z,4.14
2019-01-02T07:05:20.667Z,4.07
2019-01-02T07:06:20.653Z,4.02
2019-01-02T07:07:20.635Z,3.96
2019-01-02T07:08:20.620Z,3.92
2019-01-02T07:09:20.601Z,3.93
2019-01-02T07:10:20.585Z,3.99
2019-01-02T07:11:20.567Z,3.90
2019-01-02T07:12:20.553Z,3.95
2019-01-02T07:13:20.535Z,3.92
2019-01-02T07:14:20.519Z,3.89
2019-01-02T07:15:20.501Z,4.02
2019-01-02T07:16:20.485Z,3.95
2019-01-02T07:17:20.468Z,3.81
2019-01-02T07:18:20.453Z,3.89
2019-01-02T07:19:20.437Z,3.80
2019-01-02T07:20:20.418Z,3.86
2019-01-02T07:21:20.402Z,3.99
2019-01-02T07:22:20.385Z,3.95
2019-01-02T07:23:20.369Z,3.89
2019-01-02T07:24:20.354Z,3.75
2019-01-02T07:25:20.338Z,3.82
2019-01-02T07:26:20.319Z,3.77
2019-01-02T07:27:20.302Z,3.81
2019-01-02T07:28:20.287Z,3.77
2019-01-02T07:29:20.268Z,3.70
2019-01-02T07:30:20.252Z,3.72
2019-01-02T07:31:20.239Z,3.59
2019-01-02T07:32:24.598Z,3.60
2019-01-02T07:33:20.205Z,3.68
2019-01-02T07:34:20.189Z,3.72
2019-01-02T07:35:20.171Z,3.72
2019-01-02T07:36:20.156Z,3.68
2019-01-02T07:37:20.150Z,3.72
2019-01-02T07:38:20.122Z,3.75
2019-01-02T07:39:20.105Z,3.86
2019-01-02T07:40:20.091Z,3.74
2019-01-02T07:41:20.074Z,3.86
2019-01-02T07:42:20.059Z,3.86
2019-01-02T07:43:20.041Z,3.93
2019-01-02T07:44:20.026Z,3.95
2019-01-02T07:45:20.011Z,4.02
2019-01-02T07:46:19.995Z,3.99
2019-01-02T07:47:19.980Z,3.96
2019-01-02T07:48:19.962Z,4.08
2019-01-02T07:49:19.944Z,3.98
2019-01-02T07:50:19.935Z,3.98
2019-01-02T07:51:19.914Z,3.96
2019-01-02T07:52:19.897Z,3.93
2019-01-02T07:53:19.884Z,3.82
2019-01-02T07:54:19.870Z,3.86
2019-01-02T07:55:19.849Z,3.89
2019-01-02T07:56:19.831Z,3.86
2019-01-02T07:57:19.816Z,3.80
2019-01-02T07:58:19.803Z,3.90
2019-01-02T07:59:19.783Z,3.78
2019-01-02T08:00:19.769Z,3.84
2019-01-02T08:01:19.751Z,3.84
2019-01-02T08:02:19.736Z,3.86
2019-01-02T08:03:19.720Z,3.88
2019-01-02T08:04:19.707Z,3.78
2019-01-02T08:05:19.690Z,3.89
2019-01-02T08:06:19.672Z,3.89
2019-01-02T08:07:19.656Z,3.92
2019-01-02T08:08:19.643Z,3.95
2019-01-02T08:09:19.624Z,3.96
2019-01-02T08:10:19.610Z,3.95
2019-01-02T08:11:19.593Z,3.96
2019-01-02T08:12:19.579Z,3.96
2019-01-02T08:13:19.561Z,4.06
2019-01-02T08:14:19.545Z,4.08
2019-01-02T08:15:19.531Z,3.96
2019-01-02T08:16:19.516Z,3.98
2019-01-02T08:17:19.498Z,4.04
2019-01-02T08:18:19.482Z,3.99
2019-01-02T08:19:19.468Z,4.13
2019-01-02T08:20:19.452Z,3.99
2019-01-02T08:21:19.437Z,3.99
2019-01-02T08:22:19.423Z,4.13
2019-01-02T08:23:19.406Z,4.24
2019-01-02T08:24:19.391Z,4.17
2019-01-02T08:25:19.375Z,4.32
2019-01-02T08:26:19.358Z,4.35
2019-01-02T08:27:19.343Z,4.29
2019-01-02T08:28:19.326Z,4.32
2019-01-02T08:29:19.314Z,4.34
2019-01-02T08:30:19.301Z,4.39
2019-01-02T08:31:19.281Z,4.38
2019-01-02T08:32:19.266Z,4.35
2019-01-02T08:33:19.248Z,4.35
2019-01-02T08:34:19.233Z,4.31
2019-01-02T08:35:19.219Z,4.34
2019-01-02T08:36:19.203Z,4.36
2019-01-02T08:37:19.187Z,4.38
2019-01-02T08:38:19.170Z,4.35
2019-01-02T08:39:19.161Z,4.35
2019-01-02T08:40:19.143Z,4.26
2019-01-02T08:41:19.124Z,4.38
2019-01-02T08:42:19.109Z,4.31
2019-01-02T08:43:19.094Z,4.32
2019-01-02T08:44:19.081Z,4.44
2019-01-02T08:45:19.061Z,4.47
2019-01-02T08:46:19.048Z,4.50
2019-01-02T08:47:19.032Z,4.56
2019-01-02T08:48:19.016Z,4.56
2019-01-02T08:49:18.999Z,4.56
2019-01-02T08:50:18.984Z,4.57
2019-01-02T08:51:18.968Z,4.69
2019-01-02T08:52:18.954Z,4.71
2019-01-02T08:53:18.939Z,4.77
2019-01-02T08:54:18.922Z,4.72
2019-01-02T08:55:18.910Z,4.75
2019-01-02T08:56:18.893Z,4.80
2019-01-02T08:57:18.877Z,4.86
2019-01-02T08:58:18.862Z,4.94
2019-01-02T08:59:18.849Z,5.02
2019-01-02T09:00:18.830Z,5.12
2019-01-02T09:01:18.817Z,5.24
2019-01-02T09:02:18.800Z,5.27
2019-01-02T09:03:18.786Z,5.40
2019-01-02T09:04:18.771Z,5.55
2019-01-02T09:05:18.758Z,5.47
2019-01-02T09:06:18.740Z,5.49
2019-01-02T09:07:18.725Z,5.62
2019-01-02T09:08:18.710Z,5.60
2019-01-02T09:09:18.695Z,5.62
2019-01-02T09:10:18.685Z,5.60
2019-01-02T09:11:18.667Z,5.78
2019-01-02T09:12:18.650Z,5.74
2019-01-02T09:13:18.633Z,5.84
2019-01-02T09:14:18.617Z,5.87
2019-01-02T09:15:18.606Z,5.93
2019-01-02T09:16:18.589Z,6.02
2019-01-02T09:17:18.575Z,6.17
2019-01-02T09:18:18.559Z,6.17
2019-01-02T09:19:18.545Z,6.11
2019-01-02T09:20:18.531Z,6.05
2019-01-02T09:21:18.514Z,6.14
2019-01-02T09:22:18.499Z,6.24
2019-01-02T09:23:18.482Z,6.16
2019-01-02T09:24:18.474Z,6.11
2019-01-02T09:25:18.454Z,6.03
2019-01-02T09:26:18.440Z,6.13
2019-01-02T09:27:18.424Z,6.05
2019-01-02T09:28:18.410Z,6.06
2019-01-02T09:29:18.396Z,6.11
2019-01-02T09:30:18.381Z,6.24
2019-01-02T09:31:18.365Z,6.14
2019-01-02T09:32:18.351Z,6.20
2019-01-02T09:33:18.333Z,6.05
2019-01-02T09:34:18.320Z,6.03
2019-01-02T09:35:18.306Z,6.11
2019-01-02T09:36:18.294Z,6.03
2019-01-02T09:37:18.275Z,6.11
2019-01-02T09:38:18.261Z,6.05
2019-01-02T09:39:18.246Z,6.14
2019-01-02T09:40:18.233Z,6.10
2019-01-02T09:41:18.215Z,6.10
2019-01-02T09:42:18.206Z,6.03
2019-01-02T09:43:24.393Z,6.08
2019-01-02T09:44:18.170Z,6.28
2019-01-02T09:45:18.156Z,6.20
2019-01-02T09:46:18.163Z,6.28
2019-01-02T09:47:18.131Z,6.33
2019-01-02T09:48:18.111Z,6.20
2019-01-02T09:49:18.095Z,6.20
2019-01-02T09:50:18.084Z,6.17
2019-01-02T09:51:18.068Z,6.35
2019-01-02T09:52:18.052Z,6.43
2019-01-02T09:53:18.036Z,6.46
2019-01-02T09:54:18.026Z,6.55
2019-01-02T09:55:18.008Z,6.40
2019-01-02T09:56:17.993Z,6.45
2019-01-02T09:57:17.979Z,6.30
2019-01-02T09:58:17.964Z,6.30
2019-01-02T09:59:17.950Z,6.35
2019-01-02T10:00:17.934Z,6.45
2019-01-02T10:01:17.920Z,6.54
2019-01-02T10:02:17.905Z,6.48
2019-01-02T10:03:17.894Z,6.64
2019-01-02T10:04:17.876Z,6.48
2019-01-02T10:05:17.860Z,6.38
2019-01-02T10:06:17.850Z,6.17
2019-01-02T10:07:17.871Z,6.24
2019-01-02T10:08:17.816Z,6.17
2019-01-02T10:09:17.803Z,6.19
2019-01-02T10:10:17.788Z,6.24
2019-01-02T10:11:17.773Z,6.08
2019-01-02T10:12:17.756Z,6.17
2019-01-02T10:13:17.746Z,6.20
2019-01-02T10:14:17.731Z,6.14
2019-01-02T10:15:17.720Z,6.24
2019-01-02T10:16:17.739Z,6.17
2019-01-02T10:17:17.687Z,6.20
2019-01-02T10:18:17.672Z,6.21
2019-01-02T10:19:17.658Z,6.25
2019-01-02T10:20:17.641Z,6.20
2019-01-02T10:21:17.633Z,6.13
2019-01-02T10:22:17.611Z,6.25
2019-01-02T10:23:17.597Z,6.40
2019-01-02T10:24:17.582Z,6.45
2019-01-02T10:25:17.567Z,6.40
2019-01-02T10:26:17.552Z,6.48
2019-01-02T10:27:17.537Z,6.61
2019-01-02T10:28:17.525Z,6.71
2019-01-02T10:29:17.508Z,6.72
2019-01-02T10:30:17.493Z,6.89
2019-01-02T10:31:17.478Z,6.83
2019-01-02T10:32:17.466Z,6.93
2019-01-02T10:33:17.451Z,6.86
2019-01-02T10:34:17.436Z,6.94
2019-01-02T10:35:17.422Z,6.76
2019-01-02T10:36:17.409Z,6.82
2019-01-02T10:37:17.393Z,6.86
2019-01-02T10:38:17.379Z,7.04
2019-01-02T10:39:17.419Z,7.07
2019-01-02T10:40:17.349Z,7.14
2019-01-02T10:41:17.334Z,7.16
2019-01-02T10:42:17.323Z,7.18
2019-01-02T10:43:17.309Z,7.18
2019-01-02T10:44:17.294Z,7.16
2019-01-02T10:45:17.277Z,7.32
2019-01-02T10:46:17.262Z,7.27
2019-01-02T10:47:17.249Z,7.36
2019-01-02T10:48:17.237Z,7.45
2019-01-02T10:49:17.222Z,7.44
2019-01-02T10:50:17.206Z,7.21
2019-01-02T10:51:17.193Z,7.34
2019-01-02T10:52:17.179Z,7.27
2019-01-02T10:53:17.161Z,7.37
2019-01-02T10:54:17.148Z,7.37
2019-01-02T10:55:17.134Z,7.57
2019-01-02T10:56:17.119Z,7.66
2019-01-02T10:57:17.107Z,7.77
2019-01-02T10:58:17.095Z,7.79
2019-01-02T10:59:17.086Z,7.70
2019-01-02T11:00:17.067Z,7.81
2019-01-02T11:01:17.051Z,7.79
2019-01-02T11:02:17.037Z,7.89
2019-01-02T11:03:17.023Z,7.95
2019-01-02T11:04:17.009Z,8.00
2019-01-02T11:05:16.994Z,7.96
2019-01-02T11:06:16.982Z,8.02
2019-01-02T11:07:16.971Z,8.03
2019-01-02T11:08:16.954Z,7.79
2019-01-02T11:09:16.941Z,7.91
2019-01-02T11:10:16.929Z,7.77
2019-01-02T11:11:16.913Z,7.67
2019-01-02T11:12:16.901Z,7.66
2019-01-02T11:13:16.886Z,7.77
2019-01-02T11:14:16.873Z,7.79
2019-01-02T11:15:16.862Z,7.89
2019-01-02T11:16:16.847Z,8.00
2019-01-02T11:17:17.376Z,7.85
2019-01-02T11:18:16.817Z,7.74
2019-01-02T11:19:16.805Z,7.60
2019-01-02T11:20:16.831Z,7.63
2019-01-02T11:21:16.779Z,7.44
2019-01-02T11:22:16.766Z,7.45
2019-01-02T11:23:16.774Z,7.41
2019-01-02T11:24:16.738Z,7.41
2019-01-02T11:25:16.721Z,7.30
2019-01-02T11:26:16.711Z,7.21
2019-01-02T11:27:16.695Z,7.21
2019-01-02T11:28:16.683Z,7.14
2019-01-02T11:29:16.669Z,7.16
2019-01-02T11:30:16.653Z,7.21
2019-01-02T11:31:16.639Z,7.21
2019-01-02T11:32:16.626Z,7.24
2019-01-02T11:33:16.611Z,7.19
2019-01-02T11:34:16.597Z,7.14
2019-01-02T11:35:16.585Z,7.12
2019-01-02T11:36:16.572Z,7.01
2019-01-02T11:37:16.558Z,6.93
2019-01-02T11:38:16.541Z,7.00
2019-01-02T11:39:16.529Z,6.96
2019-01-02T11:40:16.513Z,7.00
2019-01-02T11:41:16.499Z,7.05
2019-01-02T11:42:16.485Z,6.89
2019-01-02T11:43:16.473Z,6.91
2019-01-02T11:44:21.193Z,6.76
2019-01-02T11:45:16.443Z,6.79
2019-01-02T11:46:16.427Z,6.91
2019-01-02T11:47:16.415Z,6.96
2019-01-02T11:48:16.399Z,7.01
2019-01-02T11:49:16.386Z,7.05
2019-01-02T11:50:16.376Z,6.99
2019-01-02T11:51:16.357Z,7.05
2019-01-02T11:52:16.346Z,7.12
2019-01-02T11:53:16.335Z,7.14
2019-01-02T11:54:16.327Z,7.14
2019-01-02T11:55:16.301Z,7.11
2019-01-02T11:56:16.287Z,7.24
2019-01-02T11:57:16.272Z,7.23
2019-01-02T11:58:16.257Z,7.30
2019-01-02T11:59:16.244Z,7.23
2019-01-02T12:00:16.230Z,7.27
2019-01-02T12:01:16.217Z,7.27
2019-01-02T12:02:16.203Z,7.32
2019-01-02T12:03:16.188Z,7.45
2019-01-02T12:04:16.175Z,7.50
2019-01-02T12:05:16.159Z,7.45
2019-01-02T12:06:16.147Z,7.60
2019-01-02T12:07:16.136Z,7.62
2019-01-02T12:08:16.119Z,7.81
2019-01-02T12:09:16.104Z,7.94
2019-01-02T12:10:16.093Z,7.91
2019-01-02T12:11:16.077Z,7.89
2019-01-02T12:12:16.061Z,7.58
2019-01-02T12:13:16.050Z,7.66
2019-01-02T12:14:16.036Z,7.57
2019-01-02T12:15:16.022Z,7.67
2019-01-02T12:16:16.008Z,7.67
2019-01-02T12:17:15.995Z,7.81
2019-01-02T12:18:15.982Z,7.88
2019-01-02T12:19:15.969Z,7.94
2019-01-02T12:20:15.954Z,7.94
2019-01-02T12:21:15.939Z,7.96
2019-01-02T12:22:15.929Z,7.99
2019-01-02T12:23:15.915Z,7.77
2019-01-02T12:24:15.899Z,7.88
2019-01-02T12:25:15.886Z,7.79
2019-01-02T12:26:15.873Z,7.67
2019-01-02T12:27:15.859Z,7.60
2019-01-02T12:28:15.846Z,7.62
2019-01-02T12:29:15.835Z,7.62
2019-01-02T12:30:15.819Z,7.62
2019-01-02T12:31:15.807Z,7.41
2019-01-02T12:32:15.791Z,7.44
2019-01-02T12:33:15.811Z,7.32
2019-01-02T12:34:15.765Z,7.21
2019-01-02T12:35:15.749Z,7.11
2019-01-02T12:36:15.737Z,7.24
2019-01-02T12:37:15.721Z,7.37
2019-01-02T12:38:15.709Z,7.23
2019-01-02T12:39:15.694Z,7.23
2019-01-02T12:40:15.683Z,7.47
2019-01-02T12:41:15.669Z,7.33
2019-01-02T12:42:15.656Z,7.36
2019-01-02T12:44:15.627Z,7.37
2019-01-02T12:45:15.614Z,7.36
2019-01-02T12:46:15.600Z,7.23
2019-01-02T12:47:15.585Z,7.27
2019-01-02T12:48:15.573Z,7.27
2019-01-02T12:49:15.556Z,7.30
2019-01-02T12:50:15.546Z,7.14
2019-01-02T12:51:15.532Z,6.91
2019-01-02T12:52:15.518Z,6.89
2019-01-02T12:53:15.503Z,6.86
2019-01-02T12:54:15.489Z,6.86
2019-01-02T12:55:15.476Z,6.89
2019-01-02T12:56:15.462Z,6.94
2019-01-02T12:57:15.450Z,6.89
2019-01-02T12:58:15.436Z,6.72
2019-01-02T12:59:15.423Z,6.79
2019-01-02T13:00:15.408Z,6.81
2019-01-02T13:01:15.396Z,6.83
2019-01-02T13:02:15.380Z,6.94
2019-01-02T13:03:15.366Z,6.91
2019-01-02T13:04:15.354Z,6.86
2019-01-02T13:05:15.337Z,6.94
2019-01-02T13:06:15.324Z,6.96
2019-01-02T13:07:15.311Z,6.33
2019-01-02T13:08:15.296Z,6.05
2019-01-02T13:09:15.281Z,6.03
2019-01-02T13:10:15.266Z,6.05
2019-01-02T13:11:15.253Z,6.20
2019-01-02T13:12:15.240Z,6.11
2019-01-02T13:13:15.223Z,6.21
2019-01-02T13:14:15.210Z,6.24
2019-01-02T13:15:15.196Z,6.46
2019-01-02T13:16:15.182Z,6.58
2019-01-02T13:17:15.166Z,6.82
2019-01-02T13:18:15.154Z,6.91
2019-01-02T13:19:15.136Z,6.83